Time;durP1;ratioP1;P1;durP2;ratioP2;P2;SDS_P1;SDS_P2;PMS_P1;PMS_P2;Temp;Humidity;BMP_temperature;BMP_pressure;BME280_temperature;BME280_humidity;BME280_pressure;Samples;Min_cycle;Max_cycle;Signal;HPM_P1;HPM_P2
2020/12/11 00:01:44;;;;;;;60.30;23.77;;;;;;;;;;6250687;23;20414;-73
2020/12/11 00:04:11;;;;;;;69.93;26.80;;;;;;;;;;6250340;23;20429;-73
2020/12/11 00:06:38;;;;;;;70.47;25.57;;;;;;;;;;6249261;23;20414;-72
2020/12/11 00:09:10;;;;;;;61.03;25.27;;;;;;;;;;6249158;23;20386;-73
2020/12/11 00:11:37;;;;;;;65.47;24.00;;;;;;;;;;6248811;23;20417;-73
2020/12/11 00:14:04;;;;;;;64.03;25.83;;;;;;;;;;6249132;23;20392;-73
2020/12/11 00:16:32;;;;;;;62.47;23.83;;;;;;;;;;6249632;23;20414;-75
2020/12/11 00:18:59;;;;;;;63.30;24.70;;;;;;;;;;6248670;23;20417;-73
2020/12/11 00:21:27;;;;;;;52.63;23.03;;;;;;;;;;6248603;23;20426;-73
2020/12/11 00:23:54;;;;;;;64.17;24.07;;;;;;;;;;6249200;23;20767;-73
2020/12/11 00:26:23;;;;;;;60.10;23.80;;;;;;;;;;6249106;23;20410;-74
2020/12/11 00:28:53;;;;;;;55.10;25.27;;;;;;;;;;6248809;23;20473;-73
2020/12/11 00:31:24;;;;;;;66.17;27.60;;;;;;;;;;6248810;23;20679;-74
2020/12/11 00:33:52;;;;;;;64.17;23.07;;;;;;;;;;6248448;23;20808;-73
2020/12/11 00:36:19;;;;;;;64.60;24.70;;;;;;;;;;6249040;23;20922;-74
2020/12/11 00:38:47;;;;;;;64.83;23.93;;;;;;;;;;6248942;23;20711;-73
2020/12/11 00:41:14;;;;;;;51.87;23.00;;;;;;;;;;6249533;23;20789;-73
2020/12/11 00:43:44;;;;;;;63.20;24.37;;;;;;;;;;6248331;23;20898;-72
2020/12/11 00:46:13;;;;;;;51.20;23.57;;;;;;;;;;6248847;23;20774;-74
2020/12/11 00:48:41;;;;;;;58.40;23.43;;;;;;;;;;6248846;23;20492;-74
2020/12/11 00:51:08;;;;;;;68.97;23.53;;;;;;;;;;6249104;23;20432;-73
2020/12/11 00:53:35;;;;;;;63.00;22.40;;;;;;;;;;6248095;23;20405;-73
2020/12/11 00:56:03;;;;;;;63.43;25.07;;;;;;;;;;6248620;23;20716;-73
2020/12/11 00:58:30;;;;;;;51.70;21.87;;;;;;;;;;6248714;23;20830;-73
2020/12/11 01:00:58;;;;;;;46.63;21.60;;;;;;;;;;6245177;23;20420;-72
2020/12/11 01:03:26;;;;;;;52.90;22.10;;;;;;;;;;6249012;23;20426;-73
2020/12/11 01:05:53;;;;;;;60.90;21.40;;;;;;;;;;6249062;23;20681;-72
2020/12/11 01:08:20;;;;;;;46.67;20.80;;;;;;;;;;6248917;23;20688;-73
2020/12/11 01:10:48;;;;;;;48.10;21.43;;;;;;;;;;6248974;23;20394;-72
2020/12/11 01:13:15;;;;;;;53.33;21.37;;;;;;;;;;6248199;23;20452;-72
2020/12/11 01:15:42;;;;;;;44.70;20.20;;;;;;;;;;6248916;23;20670;-72
2020/12/11 01:18:13;;;;;;;43.57;19.13;;;;;;;;;;6247682;23;20703;-73
2020/12/11 01:20:41;;;;;;;55.27;20.30;;;;;;;;;;6248364;23;20790;-73
2020/12/11 01:23:08;;;;;;;51.17;21.27;;;;;;;;;;6248899;23;20720;-72
2020/12/11 01:25:35;;;;;;;39.27;16.90;;;;;;;;;;6247759;23;20484;-73
2020/12/11 01:28:04;;;;;;;49.40;20.23;;;;;;;;;;6248179;23;20417;-73
2020/12/11 01:30:31;;;;;;;40.77;19.17;;;;;;;;;;6248061;23;20401;-73
2020/12/11 01:32:58;;;;;;;40.37;17.30;;;;;;;;;;6248923;23;20409;-73
2020/12/11 01:35:30;;;;;;;41.57;17.17;;;;;;;;;;6248508;23;20394;-73
2020/12/11 01:37:57;;;;;;;33.53;15.60;;;;;;;;;;6248826;23;20426;-73
2020/12/11 01:40:24;;;;;;;39.13;17.27;;;;;;;;;;6248455;23;20394;-73
2020/12/11 01:42:52;;;;;;;40.00;17.20;;;;;;;;;;6249122;23;20687;-73
2020/12/11 01:45:21;;;;;;;34.73;16.70;;;;;;;;;;6248734;23;20831;-73
2020/12/11 01:47:48;;;;;;;32.60;16.73;;;;;;;;;;6249057;23;20424;-73
2020/12/11 01:50:19;;;;;;;34.40;14.80;;;;;;;;;;6248190;23;20412;-72
2020/12/11 01:52:48;;;;;;;43.30;15.97;;;;;;;;;;6248402;23;20476;-74
2020/12/11 01:55:16;;;;;;;37.23;15.77;;;;;;;;;;6248572;23;20871;-72
2020/12/11 01:57:49;;;;;;;42.03;18.57;;;;;;;;;;6247991;23;20417;-73
2020/12/11 02:00:19;;;;;;;31.93;14.63;;;;;;;;;;6247918;23;20417;-74
2020/12/11 02:02:48;;;;;;;32.20;16.13;;;;;;;;;;6248514;23;20421;-73
2020/12/11 02:05:16;;;;;;;36.67;16.67;;;;;;;;;;6248348;23;20437;-73
2020/12/11 02:07:43;;;;;;;34.57;15.77;;;;;;;;;;6248205;23;20389;-73
2020/12/11 02:10:11;;;;;;;37.00;16.63;;;;;;;;;;6248333;23;20418;-73
2020/12/11 02:12:39;;;;;;;39.97;18.10;;;;;;;;;;6248016;23;20393;-73
2020/12/11 02:15:07;;;;;;;31.13;14.43;;;;;;;;;;6248441;23;20472;-73
2020/12/11 02:17:36;;;;;;;39.57;16.70;;;;;;;;;;6247996;23;20393;-73
2020/12/11 02:20:04;;;;;;;35.70;16.07;;;;;;;;;;6247981;23;20433;-73
2020/12/11 02:22:33;;;;;;;38.67;16.33;;;;;;;;;;6247608;23;20452;-73
2020/12/11 02:25:00;;;;;;;36.83;15.77;;;;;;;;;;6248050;23;20452;-72
2020/12/11 02:27:27;;;;;;;29.70;14.63;;;;;;;;;;6247891;23;20488;-73
2020/12/11 02:29:58;;;;;;;38.20;17.80;;;;;;;;;;6247931;23;20418;-73
2020/12/11 02:32:26;;;;;;;41.90;17.20;;;;;;;;;;6247994;23;20386;-72
2020/12/11 02:34:53;;;;;;;37.80;18.27;;;;;;;;;;6248715;23;20476;-72
2020/12/11 02:37:20;;;;;;;35.80;15.00;;;;;;;;;;6247937;23;20444;-73
2020/12/11 02:39:49;;;;;;;42.93;18.10;;;;;;;;;;6247695;23;20418;-73
2020/12/11 02:42:19;;;;;;;32.47;16.00;;;;;;;;;;6247671;23;20378;-73
2020/12/11 02:44:49;;;;;;;42.50;16.40;;;;;;;;;;6247808;23;20875;-73
2020/12/11 02:47:17;;;;;;;37.27;16.47;;;;;;;;;;6247600;23;20401;-73
2020/12/11 02:49:44;;;;;;;36.67;15.20;;;;;;;;;;6247729;23;20413;-72
2020/12/11 02:52:12;;;;;;;30.60;15.70;;;;;;;;;;6248020;23;20386;-73
2020/12/11 02:54:39;;;;;;;36.00;17.57;;;;;;;;;;6248414;23;20978;-73
2020/12/11 02:57:07;;;;;;;34.10;14.07;;;;;;;;;;6248464;23;20780;-73
2020/12/11 02:59:34;;;;;;;34.17;17.23;;;;;;;;;;6248263;23;20420;-73
2020/12/11 03:02:02;;;;;;;43.07;18.40;;;;;;;;;;6247708;23;20455;-72
2020/12/11 03:04:29;;;;;;;44.23;16.20;;;;;;;;;;6247909;23;20484;-72
2020/12/11 03:06:57;;;;;;;34.83;14.63;;;;;;;;;;6247847;23;20375;-72
2020/12/11 03:09:24;;;;;;;29.97;14.80;;;;;;;;;;6247955;23;20481;-72
2020/12/11 03:11:51;;;;;;;33.00;17.00;;;;;;;;;;6247036;23;20746;-72
2020/12/11 03:14:20;;;;;;;38.87;17.13;;;;;;;;;;6247393;23;20709;-73
2020/12/11 03:16:50;;;;;;;35.60;16.53;;;;;;;;;;6247519;23;20452;-72
2020/12/11 03:19:18;;;;;;;37.60;17.67;;;;;;;;;;6247981;23;20521;-72
2020/12/11 03:21:45;;;;;;;37.63;18.43;;;;;;;;;;6247762;23;20493;-73
2020/12/11 03:24:13;;;;;;;35.40;16.80;;;;;;;;;;6246746;23;20503;-72
2020/12/11 03:26:40;;;;;;;36.13;16.10;;;;;;;;;;6248185;23;20477;-72
2020/12/11 03:29:07;;;;;;;39.30;18.50;;;;;;;;;;6247529;23;20414;-72
2020/12/11 03:31:35;;;;;;;38.43;16.30;;;;;;;;;;6247377;23;20381;-73
2020/12/11 03:34:03;;;;;;;36.60;16.53;;;;;;;;;;6247184;23;20659;-73
2020/12/11 03:36:30;;;;;;;40.07;17.10;;;;;;;;;;6247920;23;20397;-73
2020/12/11 03:38:58;;;;;;;36.80;16.57;;;;;;;;;;6247856;23;20417;-73
2020/12/11 03:41:25;;;;;;;41.10;17.30;;;;;;;;;;6248227;23;20488;-73
2020/12/11 03:43:53;;;;;;;37.03;16.23;;;;;;;;;;6249757;23;20456;-73
2020/12/11 03:46:20;;;;;;;39.00;18.70;;;;;;;;;;6249862;23;20398;-75
2020/12/11 03:48:52;;;;;;;39.03;15.73;;;;;;;;;;6249437;23;20858;-73
2020/12/11 03:51:21;;;;;;;38.73;15.00;;;;;;;;;;6249585;23;20400;-73
2020/12/11 03:53:51;;;;;;;40.07;18.47;;;;;;;;;;6249642;23;20416;-73
2020/12/11 03:56:19;;;;;;;30.67;13.00;;;;;;;;;;6249198;23;20410;-73
2020/12/11 03:58:56;;;;;;;33.77;16.77;;;;;;;;;;6249970;23;20417;-74
2020/12/11 04:01:23;;;;;;;35.67;17.80;;;;;;;;;;6249359;23;20683;-73
2020/12/11 04:03:52;;;;;;;36.50;16.60;;;;;;;;;;6249894;23;20445;-73
2020/12/11 04:06:20;;;;;;;39.03;16.50;;;;;;;;;;6249615;23;20484;-73
2020/12/11 04:08:48;;;;;;;40.87;16.97;;;;;;;;;;6249556;23;20413;-73
2020/12/11 04:11:15;;;;;;;48.43;17.77;;;;;;;;;;6249515;23;20386;-73
2020/12/11 04:13:43;;;;;;;43.90;17.90;;;;;;;;;;6249157;23;20728;-73
2020/12/11 04:16:11;;;;;;;36.53;16.07;;;;;;;;;;6249011;23;20913;-73
2020/12/11 04:18:38;;;;;;;43.23;17.93;;;;;;;;;;6248892;23;20417;-73
2020/12/11 04:21:06;;;;;;;35.53;17.83;;;;;;;;;;6249402;23;20401;-73
2020/12/11 04:23:33;;;;;;;41.30;18.40;;;;;;;;;;6248902;23;20446;-74
2020/12/11 04:26:01;;;;;;;39.90;18.63;;;;;;;;;;6248894;23;20386;-74
2020/12/11 04:28:28;;;;;;;40.53;18.70;;;;;;;;;;6249506;23;20432;-73
2020/12/11 04:30:57;;;;;;;42.07;19.60;;;;;;;;;;6248923;23;20390;-73
2020/12/11 04:33:24;;;;;;;51.57;18.13;;;;;;;;;;6248454;23;20410;-73
2020/12/11 04:35:55;;;;;;;44.60;18.00;;;;;;;;;;6248868;23;20719;-74
2020/12/11 04:38:24;;;;;;;39.00;17.40;;;;;;;;;;6248815;23;20449;-74
2020/12/11 04:40:59;;;;;;;40.77;18.73;;;;;;;;;;6249045;23;20401;-73
2020/12/11 04:43:27;;;;;;;41.93;16.43;;;;;;;;;;6248966;23;20555;-74
2020/12/11 04:45:55;;;;;;;38.10;17.90;;;;;;;;;;6248912;23;21066;-73
2020/12/11 04:48:22;;;;;;;42.60;20.60;;;;;;;;;;6249113;23;20421;-73
2020/12/11 04:50:50;;;;;;;43.03;17.27;;;;;;;;;;6248691;23;20414;-73
2020/12/11 04:53:18;;;;;;;43.07;18.33;;;;;;;;;;6247874;23;21145;-74
2020/12/11 04:55:46;;;;;;;44.67;18.47;;;;;;;;;;6249134;23;20714;-73
2020/12/11 04:58:17;;;;;;;41.03;17.63;;;;;;;;;;6249165;23;20375;-74
2020/12/11 05:00:45;;;;;;;49.90;21.00;;;;;;;;;;6248651;23;20909;-73
2020/12/11 05:03:13;;;;;;;49.97;18.43;;;;;;;;;;6248541;23;20392;-74
2020/12/11 05:05:40;;;;;;;49.73;18.80;;;;;;;;;;6248268;23;20420;-73
2020/12/11 05:08:18;;;;;;;46.40;20.90;;;;;;;;;;6249568;23;20400;-74
2020/12/11 05:10:47;;;;;;;52.73;20.93;;;;;;;;;;6248153;23;20412;-73
2020/12/11 05:13:18;;;;;;;49.97;18.80;;;;;;;;;;6248194;23;20393;-73
2020/12/11 05:15:45;;;;;;;49.57;18.53;;;;;;;;;;6247986;23;20413;-74
2020/12/11 05:18:19;;;;;;;55.63;21.00;;;;;;;;;;6247384;23;20386;-73
2020/12/11 05:20:46;;;;;;;52.63;18.63;;;;;;;;;;6247648;23;20440;-73
2020/12/11 05:23:14;;;;;;;59.00;23.23;;;;;;;;;;6247935;23;20500;-73
2020/12/11 05:25:41;;;;;;;46.10;23.37;;;;;;;;;;6247715;23;20448;-73
2020/12/11 05:28:10;;;;;;;60.47;22.00;;;;;;;;;;6247560;23;20393;-73
2020/12/11 05:30:37;;;;;;;54.33;20.30;;;;;;;;;;6248071;23;20417;-73
2020/12/11 05:33:05;;;;;;;46.40;19.70;;;;;;;;;;6247668;23;20386;-73
2020/12/11 05:35:32;;;;;;;54.13;20.30;;;;;;;;;;6248146;23;20468;-73
2020/12/11 05:38:02;;;;;;;61.53;22.30;;;;;;;;;;6248850;23;20421;-73
2020/12/11 05:40:31;;;;;;;57.80;23.17;;;;;;;;;;6247358;23;20401;-73
2020/12/11 05:43:07;;;;;;;55.90;23.20;;;;;;;;;;6248946;23;20428;-73
2020/12/11 05:45:36;;;;;;;51.10;20.90;;;;;;;;;;6249266;23;20425;-73
2020/12/11 05:48:04;;;;;;;57.60;22.40;;;;;;;;;;6247756;23;20414;-73
2020/12/11 05:50:31;;;;;;;58.10;20.90;;;;;;;;;;6247719;23;20390;-74
2020/12/11 05:52:59;;;;;;;46.57;22.60;;;;;;;;;;6248085;23;20416;-73
2020/12/11 05:55:30;;;;;;;59.87;23.40;;;;;;;;;;6247256;23;20390;-73
2020/12/11 05:57:57;;;;;;;73.13;23.47;;;;;;;;;;6247905;23;20409;-73
2020/12/11 06:00:25;;;;;;;66.57;24.77;;;;;;;;;;6247202;23;20401;-73
2020/12/11 06:02:54;;;;;;;62.43;23.53;;;;;;;;;;6246889;23;20847;-73
2020/12/11 06:05:23;;;;;;;53.87;21.73;;;;;;;;;;6245820;23;20716;-74
2020/12/11 06:07:50;;;;;;;61.70;24.00;;;;;;;;;;6246529;23;20475;-73
2020/12/11 06:10:18;;;;;;;55.87;23.10;;;;;;;;;;6247026;23;20463;-73
2020/12/11 06:12:46;;;;;;;54.80;23.30;;;;;;;;;;6246429;23;20883;-73
2020/12/11 06:15:17;;;;;;;67.30;24.10;;;;;;;;;;6245456;23;20911;-73
2020/12/11 06:17:47;;;;;;;71.27;23.10;;;;;;;;;;6246331;23;20402;-73
2020/12/11 06:20:16;;;;;;;61.77;21.83;;;;;;;;;;6246584;23;20417;-74
2020/12/11 06:22:44;;;;;;;49.43;18.80;;;;;;;;;;6246831;23;20433;-73
2020/12/11 06:25:27;;;;;;;61.70;23.87;;;;;;;;;;6245700;23;20426;-73
2020/12/11 06:27:55;;;;;;;55.93;22.23;;;;;;;;;;6246339;23;20815;-73
2020/12/11 06:30:26;;;;;;;58.93;23.37;;;;;;;;;;6245724;23;20402;-73
2020/12/11 06:32:54;;;;;;;66.93;25.20;;;;;;;;;;6244217;23;20456;-74
2020/12/11 06:35:31;;;;;;;57.93;23.37;;;;;;;;;;6244497;23;20423;-72
2020/12/11 06:37:59;;;;;;;69.23;25.20;;;;;;;;;;6245219;23;20847;-72
2020/12/11 06:40:44;;;;;;;60.87;25.10;;;;;;;;;;6245329;23;20725;-74
2020/12/11 06:43:11;;;;;;;60.57;22.70;;;;;;;;;;6244193;23;20444;-74
2020/12/11 06:45:39;;;;;;;55.10;23.30;;;;;;;;;;6244306;23;20426;-73
2020/12/11 06:48:14;;;;;;;63.63;24.57;;;;;;;;;;6245767;23;20440;-72
2020/12/11 06:51:02;;;;;;;64.80;26.57;;;;;;;;;;6244208;23;20390;-73
2020/12/11 06:53:41;;;;;;;62.77;24.40;;;;;;;;;;6244417;23;20829;-73
2020/12/11 06:56:08;;;;;;;59.33;24.50;;;;;;;;;;6244492;23;20386;-73
2020/12/11 06:58:35;;;;;;;65.60;23.47;;;;;;;;;;6244897;23;20862;-73
2020/12/11 07:01:03;;;;;;;55.30;22.30;;;;;;;;;;6245508;23;20421;-73
2020/12/11 07:03:32;;;;;;;56.17;22.53;;;;;;;;;;6243969;23;20417;-72
2020/12/11 07:06:10;;;;;;;68.43;23.50;;;;;;;;;;6244912;23;20389;-72
2020/12/11 07:08:38;;;;;;;77.47;26.93;;;;;;;;;;6247534;23;20843;-73
2020/12/11 07:11:06;;;;;;;61.60;21.90;;;;;;;;;;6245184;23;20389;-73
2020/12/11 07:13:37;;;;;;;65.93;27.57;;;;;;;;;;6245785;23;20420;-73
2020/12/11 07:16:06;;;;;;;73.50;26.77;;;;;;;;;;6246352;23;20467;-73
2020/12/11 07:18:34;;;;;;;66.50;25.73;;;;;;;;;;6247387;23;20448;-73
2020/12/11 07:21:01;;;;;;;69.30;27.33;;;;;;;;;;6247271;23;20394;-74
2020/12/11 07:23:32;;;;;;;63.43;25.10;;;;;;;;;;6246334;23;20424;-74
2020/12/11 07:26:00;;;;;;;68.90;26.33;;;;;;;;;;6247066;23;20397;-74
2020/12/11 07:28:28;;;;;;;60.77;25.40;;;;;;;;;;6246570;23;20417;-73
2020/12/11 07:30:55;;;;;;;78.17;26.97;;;;;;;;;;6247525;23;20385;-73
2020/12/11 07:33:23;;;;;;;55.43;23.53;;;;;;;;;;6247904;23;20440;-73
2020/12/11 07:35:51;;;;;;;61.73;25.80;;;;;;;;;;6247370;23;20386;-73
2020/12/11 07:38:19;;;;;;;74.80;27.00;;;;;;;;;;6248189;23;20448;-73
2020/12/11 07:40:55;;;;;;;59.83;25.00;;;;;;;;;;6248666;23;20500;-75
2020/12/11 07:43:22;;;;;;;67.83;25.40;;;;;;;;;;6248800;23;20424;-73
2020/12/11 07:45:50;;;;;;;77.93;25.77;;;;;;;;;;6247312;23;20476;-73
2020/12/11 07:48:26;;;;;;;73.20;26.43;;;;;;;;;;6248277;23;20417;-74
2020/12/11 07:51:01;;;;;;;70.53;25.60;;;;;;;;;;6249627;23;20832;-73
2020/12/11 07:53:28;;;;;;;60.00;22.30;;;;;;;;;;6248744;23;20417;-73
2020/12/11 07:58:38;;;;;;;61.33;24.70;;;;;;;;;;6245502;23;20526;-72
2020/12/11 08:01:05;;;;;;;75.37;26.07;;;;;;;;;;6247869;23;20778;-73
2020/12/11 08:03:33;;;;;;;70.30;25.40;;;;;;;;;;6248778;23;20410;-73
2020/12/11 08:06:01;;;;;;;62.60;25.27;;;;;;;;;;6248439;23;20842;-73
2020/12/11 08:08:28;;;;;;;67.17;23.53;;;;;;;;;;6247863;23;20432;-73
2020/12/11 08:10:56;;;;;;;70.73;24.93;;;;;;;;;;6247209;23;20386;-73
2020/12/11 08:13:24;;;;;;;65.47;27.70;;;;;;;;;;6247833;23;20500;-72
2020/12/11 08:16:01;;;;;;;75.80;26.67;;;;;;;;;;6247901;23;20410;-74
2020/12/11 08:18:30;;;;;;;64.00;25.00;;;;;;;;;;6247869;23;20507;-74
2020/12/11 08:20:58;;;;;;;57.70;24.37;;;;;;;;;;6247578;23;20389;-74
2020/12/11 08:23:37;;;;;;;52.43;23.83;;;;;;;;;;6246907;23;20413;-74
2020/12/11 08:26:06;;;;;;;66.73;25.43;;;;;;;;;;6247917;23;20390;-72
2020/12/11 08:28:33;;;;;;;66.97;26.20;;;;;;;;;;6247714;23;20437;-72
2020/12/11 08:31:14;;;;;;;70.33;23.03;;;;;;;;;;6246973;23;20805;-73
2020/12/11 08:33:41;;;;;;;78.17;26.17;;;;;;;;;;6247302;23;20475;-73
2020/12/11 08:36:19;;;;;;;62.87;25.17;;;;;;;;;;6245974;23;20505;-74
2020/12/11 08:39:02;;;;;;;56.27;24.77;;;;;;;;;;6247854;23;20425;-74
2020/12/11 08:41:32;;;;;;;64.60;29.07;;;;;;;;;;6246448;23;20386;-73
2020/12/11 08:44:01;;;;;;;63.03;24.07;;;;;;;;;;6246308;23;20527;-73
2020/12/11 08:46:34;;;;;;;72.90;26.70;;;;;;;;;;6246367;23;20760;-74
2020/12/11 08:49:09;;;;;;;61.23;25.10;;;;;;;;;;6246644;23;20447;-73
2020/12/11 08:51:36;;;;;;;64.50;25.37;;;;;;;;;;6247078;23;20401;-72
2020/12/11 08:54:06;;;;;;;57.00;22.33;;;;;;;;;;6245530;23;20504;-73
2020/12/11 08:56:35;;;;;;;61.97;25.20;;;;;;;;;;6246564;23;20390;-72
2020/12/11 08:59:02;;;;;;;76.30;26.40;;;;;;;;;;6245917;23;20807;-74
2020/12/11 09:01:30;;;;;;;57.43;24.03;;;;;;;;;;6246285;23;20493;-74
2020/12/11 09:03:57;;;;;;;70.80;27.97;;;;;;;;;;6246606;23;20417;-74
2020/12/11 09:06:25;;;;;;;69.87;26.17;;;;;;;;;;6246611;23;20390;-74
2020/12/11 09:08:52;;;;;;;65.90;25.57;;;;;;;;;;6246210;23;20428;-73
2020/12/11 09:11:28;;;;;;;58.33;23.10;;;;;;;;;;6245131;23;20405;-73
2020/12/11 09:14:00;;;;;;;71.27;26.00;;;;;;;;;;6246300;23;20421;-74
2020/12/11 09:16:27;;;;;;;67.63;26.10;;;;;;;;;;6246834;23;20402;-73
2020/12/11 09:18:56;;;;;;;59.90;26.47;;;;;;;;;;6246360;23;20421;-74
2020/12/11 09:21:23;;;;;;;64.07;28.20;;;;;;;;;;6246242;23;20842;-74
2020/12/11 09:24:00;;;;;;;68.33;24.20;;;;;;;;;;6247027;23;20421;-73
2020/12/11 09:26:30;;;;;;;62.20;24.43;;;;;;;;;;6247670;23;20405;-73
2020/12/11 09:29:10;;;;;;;67.70;24.27;;;;;;;;;;6246798;23;20456;-73
2020/12/11 09:31:44;;;;;;;52.47;23.10;;;;;;;;;;6247691;23;20501;-73
2020/12/11 09:34:12;;;;;;;65.87;24.03;;;;;;;;;;6246430;23;20439;-74
2020/12/11 09:36:42;;;;;;;66.80;27.20;;;;;;;;;;6244730;23;20405;-74
2020/12/11 09:39:12;;;;;;;61.23;25.50;;;;;;;;;;6245361;23;20414;-73
2020/12/11 09:41:59;;;;;;;60.70;24.80;;;;;;;;;;6246147;23;20412;-74
2020/12/11 09:47:40;;;;;;;61.90;25.07;;;;;;;;;;6093412;23;20426;-74
2020/12/11 09:50:28;;;;;;;59.23;25.07;;;;;;;;;;6228196;23;20418;-73
2020/12/11 09:53:08;;;;;;;61.20;23.70;;;;;;;;;;6248767;23;20398;-74
2020/12/11 09:55:45;;;;;;;59.53;23.37;;;;;;;;;;6248818;23;20441;-73
2020/12/11 09:58:15;;;;;;;57.43;23.37;;;;;;;;;;6249681;23;20500;-73
2020/12/11 10:00:52;;;;;;;52.90;24.83;;;;;;;;;;6248406;23;20397;-74
2020/12/11 10:03:32;;;;;;;54.60;20.97;;;;;;;;;;6249457;23;20421;-72
2020/12/11 10:06:19;;;;;;;49.97;23.43;;;;;;;;;;6245536;23;20437;-73
2020/12/11 10:08:51;;;;;;;51.13;22.80;;;;;;;;;;6229881;23;20431;-73
2020/12/11 10:11:20;;;;;;;64.87;24.47;;;;;;;;;;6248132;23;20440;-73
2020/12/11 10:13:54;;;;;;;62.97;23.00;;;;;;;;;;6245716;23;20501;-74
2020/12/11 10:16:38;;;;;;;64.73;24.83;;;;;;;;;;6244398;23;20444;-74
2020/12/11 10:19:07;;;;;;;54.53;25.50;;;;;;;;;;6246295;23;20412;-74
2020/12/11 10:21:40;;;;;;;58.07;24.33;;;;;;;;;;6245801;23;20416;-74
2020/12/11 10:24:08;;;;;;;61.93;23.70;;;;;;;;;;6244469;23;20509;-73
2020/12/11 10:26:43;;;;;;;61.47;24.30;;;;;;;;;;6245038;23;20391;-73
2020/12/11 10:29:12;;;;;;;52.83;23.13;;;;;;;;;;6244563;23;20435;-73
2020/12/11 10:31:42;;;;;;;40.00;18.40;;;;;;;;;;6244964;23;20382;-73
2020/12/11 10:34:24;;;;;;;55.50;22.10;;;;;;;;;;6244572;23;20790;-73
2020/12/11 10:36:53;;;;;;;54.83;23.70;;;;;;;;;;6244888;23;20405;-73
2020/12/11 10:39:21;;;;;;;63.20;22.73;;;;;;;;;;6244280;23;20744;-73
2020/12/11 10:41:48;;;;;;;59.63;21.60;;;;;;;;;;6245597;23;20778;-73
2020/12/11 10:44:21;;;;;;;62.27;22.77;;;;;;;;;;6245726;23;20794;-73
2020/12/11 10:46:50;;;;;;;60.10;25.93;;;;;;;;;;6246331;23;20808;-74
2020/12/11 10:49:21;;;;;;;63.83;25.47;;;;;;;;;;6246117;23;20455;-73
2020/12/11 10:51:49;;;;;;;51.10;22.13;;;;;;;;;;6245680;23;20584;-73
2020/12/11 10:54:18;;;;;;;55.17;22.03;;;;;;;;;;6246029;23;20390;-73
2020/12/11 10:56:46;;;;;;;60.33;21.70;;;;;;;;;;6245516;23;20401;-73
2020/12/11 10:59:13;;;;;;;52.17;22.27;;;;;;;;;;6245089;23;20454;-74
2020/12/11 11:01:45;;;;;;;49.97;22.10;;;;;;;;;;6244601;23;20418;-74
2020/12/11 11:04:12;;;;;;;53.37;23.50;;;;;;;;;;6244139;23;20812;-73
2020/12/11 11:06:52;;;;;;;50.23;22.70;;;;;;;;;;6246330;23;20437;-74
2020/12/11 11:09:33;;;;;;;54.90;25.00;;;;;;;;;;6244703;23;20425;-73
2020/12/11 11:12:09;;;;;;;58.20;22.40;;;;;;;;;;6244868;23;20420;-73
2020/12/11 11:20:22;;;;;;;47.60;22.63;;;;;;;;;;6205879;23;20405;-73
2020/12/11 11:22:57;;;;;;;49.50;22.50;;;;;;;;;;6244257;23;20413;-74
2020/12/11 11:28:09;;;;;;;53.60;23.33;;;;;;;;;;6242669;23;20492;-73
2020/12/11 11:30:36;;;;;;;45.03;21.50;;;;;;;;;;6244803;23;20687;-73
2020/12/11 11:33:04;;;;;;;49.87;23.07;;;;;;;;;;6245246;23;20453;-72
2020/12/11 11:35:32;;;;;;;41.13;20.00;;;;;;;;;;6243856;23;20416;-73
2020/12/11 11:38:09;;;;;;;49.07;21.70;;;;;;;;;;6244577;23;20405;-72
2020/12/11 11:40:50;;;;;;;52.20;21.83;;;;;;;;;;6244109;23;20394;-72
2020/12/11 11:43:21;;;;;;;49.87;22.40;;;;;;;;;;6245875;23;20467;-73
2020/12/11 11:46:12;;;;;;;56.33;22.40;;;;;;;;;;6246124;23;20447;-72
2020/12/11 11:51:36;;;;;;;45.77;21.80;;;;;;;;;;6245977;23;20366;-72
2020/12/11 11:54:05;;;;;;;57.70;23.20;;;;;;;;;;6245378;23;20726;-73
2020/12/11 11:56:33;;;;;;;46.50;23.23;;;;;;;;;;6245113;23;20394;-74
2020/12/11 11:59:00;;;;;;;51.37;20.80;;;;;;;;;;6245830;23;20441;-73
2020/12/11 12:01:30;;;;;;;49.40;23.67;;;;;;;;;;6245002;23;20508;-72
2020/12/11 12:03:58;;;;;;;53.37;24.07;;;;;;;;;;6247458;23;20421;-73
2020/12/11 12:06:27;;;;;;;53.27;23.73;;;;;;;;;;6247582;23;20425;-73
2020/12/11 12:09:00;;;;;;;55.30;22.60;;;;;;;;;;6246222;23;20417;-73
2020/12/11 12:11:33;;;;;;;46.97;23.30;;;;;;;;;;6247389;23;20784;-72
2020/12/11 12:14:10;;;;;;;61.40;24.17;;;;;;;;;;6246163;23;20924;-72
2020/12/11 12:16:47;;;;;;;51.90;21.50;;;;;;;;;;6246947;23;20413;-74
2020/12/11 12:19:26;;;;;;;61.63;23.20;;;;;;;;;;6247311;23;20414;-72
2020/12/11 12:30:36;;;;;;;53.90;21.83;;;;;;;;;;6245298;23;20378;-73
2020/12/11 12:35:59;;;;;;;49.70;21.53;;;;;;;;;;6169980;23;20393;-73
2020/12/11 12:38:42;;;;;;;44.17;21.63;;;;;;;;;;6246490;23;20453;-73
2020/12/11 12:44:23;;;;;;;46.53;21.30;;;;;;;;;;6246105;23;20532;-74
2020/12/11 12:47:01;;;;;;;46.43;20.70;;;;;;;;;;6246098;23;20417;-73
2020/12/11 12:50:01;;;;;;;48.47;20.80;;;;;;;;;;6247480;23;20505;-74
2020/12/11 12:52:28;;;;;;;51.97;20.27;;;;;;;;;;6243165;23;20503;-72
2020/12/11 12:58:18;;;;;;;45.33;20.10;;;;;;;;;;6202819;23;20433;-74
2020/12/11 13:01:02;;;;;;;43.57;19.30;;;;;;;;;;6245283;23;20420;-73
2020/12/11 13:03:57;;;;;;;43.10;20.83;;;;;;;;;;6245618;23;20475;-73
2020/12/11 13:06:26;;;;;;;47.07;21.30;;;;;;;;;;6247357;23;20521;-74
2020/12/11 13:09:07;;;;;;;44.63;19.83;;;;;;;;;;6246582;23;20601;-73
2020/12/11 13:11:38;;;;;;;40.70;18.90;;;;;;;;;;6246278;23;20390;-75
2020/12/11 13:14:08;;;;;;;45.57;20.57;;;;;;;;;;6245631;23;20501;-75
2020/12/11 13:16:42;;;;;;;49.97;21.30;;;;;;;;;;6245977;23;20866;-73
2020/12/11 13:19:34;;;;;;;43.90;19.40;;;;;;;;;;6246766;23;20417;-74
2020/12/11 13:22:20;;;;;;;44.20;19.70;;;;;;;;;;6247059;23;20896;-75
2020/12/11 13:27:47;;;;;;;46.87;19.40;;;;;;;;;;6247237;23;20392;-74
2020/12/11 13:30:28;;;;;;;44.67;20.77;;;;;;;;;;6246582;23;21040;-74
2020/12/11 13:33:07;;;;;;;44.27;19.57;;;;;;;;;;6247265;23;20413;-73
2020/12/11 13:35:39;;;;;;;42.70;20.87;;;;;;;;;;6246567;23;20385;-74
2020/12/11 13:38:07;;;;;;;45.23;19.73;;;;;;;;;;6247243;23;20457;-74
2020/12/11 13:40:37;;;;;;;37.70;20.47;;;;;;;;;;6247351;23;20791;-74
2020/12/11 13:43:11;;;;;;;44.83;19.73;;;;;;;;;;6246417;23;20443;-73
2020/12/11 13:45:38;;;;;;;40.53;18.97;;;;;;;;;;6247589;23;20852;-74
2020/12/11 13:48:10;;;;;;;35.30;15.83;;;;;;;;;;6244781;23;20775;-72
2020/12/11 13:50:42;;;;;;;45.37;19.97;;;;;;;;;;6247895;23;20421;-73
2020/12/11 13:53:09;;;;;;;50.50;19.80;;;;;;;;;;6248041;23;20824;-73
2020/12/11 13:55:43;;;;;;;45.97;20.80;;;;;;;;;;6247705;23;20409;-73
2020/12/11 13:58:14;;;;;;;45.97;20.27;;;;;;;;;;6246863;22;20440;-75
2020/12/11 14:00:44;;;;;;;45.33;19.20;;;;;;;;;;6246373;23;20417;-73
2020/12/11 14:03:19;;;;;;;28.60;13.53;;;;;;;;;;6248671;23;20444;-74
2020/12/11 14:05:52;;;;;;;46.60;19.20;;;;;;;;;;6247461;23;20520;-72
2020/12/11 14:08:21;;;;;;;39.37;19.77;;;;;;;;;;6244770;23;20840;-73
2020/12/11 14:11:08;;;;;;;48.73;20.77;;;;;;;;;;6247164;23;20433;-74
2020/12/11 14:13:40;;;;;;;41.20;19.43;;;;;;;;;;6185865;23;20800;-73
2020/12/11 14:16:12;;;;;;;40.27;21.30;;;;;;;;;;6247879;23;20676;-75
2020/12/11 14:18:45;;;;;;;48.87;20.90;;;;;;;;;;6248026;23;20475;-74
2020/12/11 14:21:30;;;;;;;35.17;16.70;;;;;;;;;;6246344;23;20417;-74
2020/12/11 14:23:58;;;;;;;46.57;17.23;;;;;;;;;;6246764;23;20409;-74
2020/12/11 14:26:28;;;;;;;40.60;21.00;;;;;;;;;;6246723;23;20438;-73
2020/12/11 14:29:22;;;;;;;44.47;21.00;;;;;;;;;;6245724;23;20674;-74
2020/12/11 14:31:52;;;;;;;40.83;17.47;;;;;;;;;;6176673;23;20414;-73
2020/12/11 14:34:21;;;;;;;44.77;18.30;;;;;;;;;;6246795;23;20504;-73
2020/12/11 14:36:49;;;;;;;42.03;19.23;;;;;;;;;;6245806;23;20386;-73
2020/12/11 14:39:22;;;;;;;46.50;21.07;;;;;;;;;;6246301;23;20456;-74
2020/12/11 14:41:50;;;;;;;44.10;20.90;;;;;;;;;;6245739;23;20386;-73
2020/12/11 14:44:34;;;;;;;55.37;21.67;;;;;;;;;;6244912;23;20444;-73
2020/12/11 14:47:02;;;;;;;37.47;17.90;;;;;;;;;;6246060;23;20577;-74
2020/12/11 14:49:31;;;;;;;40.27;18.67;;;;;;;;;;6245739;23;20396;-74
2020/12/11 14:52:03;;;;;;;51.37;21.20;;;;;;;;;;6245633;23;20425;-74
2020/12/11 14:54:30;;;;;;;44.97;20.00;;;;;;;;;;6246580;23;20482;-75
2020/12/11 14:57:01;;;;;;;45.73;21.47;;;;;;;;;;6246068;23;20438;-74
2020/12/11 14:59:33;;;;;;;40.87;21.40;;;;;;;;;;6246878;23;20843;-72
2020/12/11 15:05:01;;;;;;;44.87;22.73;;;;;;;;;;6235249;23;20441;-74
2020/12/11 15:07:29;;;;;;;38.40;20.13;;;;;;;;;;6246082;23;20412;-74
2020/12/11 15:10:05;;;;;;;42.23;20.97;;;;;;;;;;6245792;23;20601;-75
2020/12/11 15:13:02;;;;;;;42.70;22.10;;;;;;;;;;6246941;23;20397;-74
2020/12/11 15:18:30;;;;;;;39.30;17.93;;;;;;;;;;6123668;23;20516;-73
2020/12/11 15:20:59;;;;;;;41.90;20.00;;;;;;;;;;6238433;23;20429;-72